Terminal Aerodrome Forecast
Issued by NWS Buffalo, NY

Home | Current Version | Previous Version | Text Only | Print | Product List | Glossary On
Versions: 1 2 3 4 5 6 7 8 9 10 11 12 13 14 15 16 17 18 19 20 21 22 23 24 25 26 27 28 29 30 31 32 33 34 35
000
FTUS41 KBUF 241100
TAFBUF
TAF
KBUF 241129Z 2412/2512 31006KT P6SM SCT250
     FM242200 27005KT P6SM SCT130
     FM250200 16004KT P6SM BKN110
     FM250700 12005KT P6SM BKN100=

USA.gov is the U.S. government's official web portal to all federal, state and local government web resources and services.